createdAt,value
2023-05-02T00:00:57.191Z,102223.66
2023-05-02T00:03:23.812Z,102221.69
2023-05-02T00:05:50.391Z,102216.66
2023-05-02T00:08:16.842Z,102211.06
2023-05-02T00:10:43.345Z,102222.06
2023-05-02T00:13:10.062Z,102229.34
2023-05-02T00:15:36.588Z,102225.03
2023-05-02T00:18:03.079Z,102221.38
2023-05-02T00:20:29.615Z,102226.00
2023-05-02T00:22:57.147Z,102224.03
2023-05-02T00:25:23.706Z,102219.41
2023-05-02T00:27:51.281Z,102230.41
2023-05-02T00:30:18.625Z,102232.38
2023-05-02T00:32:45.477Z,102229.72
2023-05-02T00:35:12.009Z,102229.44
2023-05-02T00:37:39.097Z,102230.56
2023-05-02T00:40:07.940Z,102232.09
2023-05-02T00:42:36.112Z,102228.13
2023-05-02T00:45:06.781Z,102230.78
2023-05-02T00:47:33.775Z,102227.59
2023-05-02T00:50:01.384Z,102236.09
2023-05-02T00:52:28.823Z,102244.22
2023-05-02T00:54:55.600Z,102251.06
2023-05-02T00:57:22.848Z,102237.22
2023-05-02T00:59:51.012Z,102242.72
2023-05-02T01:02:36.683Z,102253.16
2023-05-02T01:05:21.026Z,102263.28
2023-05-02T01:08:15.010Z,102276.56
2023-05-02T01:10:41.477Z,102271.25
2023-05-02T01:13:12.167Z,102259.25
2023-05-02T01:15:40.804Z,102260.06
2023-05-02T01:18:12.216Z,102260.91
2023-05-02T01:20:42.405Z,102270.88
2023-05-02T01:23:23.526Z,102275.41
2023-05-02T01:25:57.019Z,102284.78
2023-05-02T01:28:30.731Z,102277.28
2023-05-02T01:30:57.974Z,102272.97
2023-05-02T01:33:27.680Z,102276.91
2023-05-02T01:35:56.017Z,102283.66
2023-05-02T01:38:25.373Z,102291.63
2023-05-02T01:40:52.850Z,102289.09
2023-05-02T01:43:21.248Z,102295.94
2023-05-02T01:45:50.757Z,102299.28
2023-05-02T01:48:19.307Z,102300.41
2023-05-02T01:50:47.723Z,102300.56
2023-05-02T01:53:15.385Z,102307.16
2023-05-02T01:55:45.104Z,102318.28
2023-05-02T01:58:14.115Z,102323.22
2023-05-02T02:00:42.000Z,102319.72
2023-05-02T02:03:09.776Z,102319.19
2023-05-02T02:05:37.734Z,102327.16
2023-05-02T02:08:04.771Z,102331.63
2023-05-02T02:10:36.920Z,102326.31
2023-05-02T02:13:31.037Z,102332.59
2023-05-02T02:16:01.822Z,102325.63
2023-05-02T02:18:29.889Z,102337.91
2023-05-02T02:20:59.746Z,102332.75
2023-05-02T02:23:28.908Z,102345.06
2023-05-02T02:25:57.013Z,102343.22
2023-05-02T02:28:23.777Z,102354.81
2023-05-02T02:30:50.309Z,102355.09
2023-05-02T02:33:17.288Z,102356.09
2023-05-02T02:35:52.769Z,102356.38
2023-05-02T02:38:43.240Z,102365.47
2023-05-02T02:41:16.550Z,102371.19
2023-05-02T02:44:12.924Z,102355.56
2023-05-02T02:46:51.857Z,102374.84
2023-05-02T02:49:32.501Z,102374.84
2023-05-02T02:52:15.593Z,102369.69
2023-05-02T02:54:50.065Z,102374.84
2023-05-02T02:57:21.194Z,102375.13
2023-05-02T03:00:12.386Z,102371.94
2023-05-02T03:02:42.599Z,102393.00
2023-05-02T03:05:11.117Z,102383.81
2023-05-02T03:07:37.576Z,102387.44
2023-05-02T03:10:05.109Z,102389.25
2023-05-02T03:12:31.837Z,102390.22
2023-05-02T03:15:14.530Z,102393.84
2023-05-02T03:17:41.085Z,102398.34
2023-05-02T03:20:07.962Z,102408.66
2023-05-02T03:22:34.420Z,102408.94
2023-05-02T03:25:00.901Z,102404.75
2023-05-02T03:27:28.365Z,102409.22
2023-05-02T03:29:54.890Z,102412.00
2023-05-02T03:32:21.487Z,102414.81
2023-05-02T03:34:48.060Z,102412.56
2023-05-02T03:37:14.526Z,102421.22
2023-05-02T03:39:40.999Z,102419.56
2023-05-02T03:42:07.496Z,102425.00
2023-05-02T03:44:33.944Z,102421.50
2023-05-02T03:47:00.696Z,102436.59
2023-05-02T03:49:27.257Z,102436.88
2023-05-02T03:51:53.712Z,102443.00
2023-05-02T03:54:20.236Z,102439.81
2023-05-02T03:56:47.052Z,102441.88
2023-05-02T03:59:14.953Z,102446.91
2023-05-02T04:01:41.563Z,102444.00
2023-05-02T04:04:08.642Z,102448.31
2023-05-02T04:06:35.528Z,102458.94
2023-05-02T04:09:02.420Z,102455.59
2023-05-02T04:11:28.918Z,102451.38
2023-05-02T04:13:55.466Z,102460.31
2023-05-02T04:16:22.568Z,102470.91
2023-05-02T04:18:49.086Z,102465.88
2023-05-02T04:21:15.722Z,102467.84
2023-05-02T04:23:42.392Z,102466.44
2023-05-02T04:26:08.863Z,102466.44
2023-05-02T04:28:36.321Z,102474.28
2023-05-02T04:31:04.182Z,102491.69
2023-05-02T04:33:31.590Z,102484.03
2023-05-02T04:35:58.072Z,102491.16
2023-05-02T04:38:24.569Z,102499.09
2023-05-02T04:40:52.369Z,102514.44
2023-05-02T04:43:18.867Z,102511.34
2023-05-02T04:45:45.430Z,102506.03
2023-05-02T04:48:12.462Z,102529.03
2023-05-02T04:50:38.954Z,102540.06
2023-05-02T04:53:05.458Z,102534.19
2023-05-02T04:55:31.909Z,102534.88
2023-05-02T04:57:58.396Z,102533.59
2023-05-02T05:00:24.887Z,102531.78
2023-05-02T05:02:51.693Z,102545.63
2023-05-02T05:05:18.380Z,102539.03
2023-05-02T05:07:45.502Z,102552.00
2023-05-02T05:10:11.979Z,102552.88
2023-05-02T05:12:38.570Z,102558.97
2023-05-02T05:15:05.393Z,102551.88
2023-05-02T05:17:31.915Z,102557.59
2023-05-02T05:19:58.653Z,102556.88
2023-05-02T05:22:25.274Z,102562.91
2023-05-02T05:24:53.521Z,102568.19
2023-05-02T05:27:20.296Z,102566.97
2023-05-02T05:29:46.836Z,102579.94
2023-05-02T05:32:13.332Z,102577.56
2023-05-02T05:34:39.824Z,102577.81
2023-05-02T05:37:06.468Z,102582.56
2023-05-02T05:39:33.220Z,102590.66
2023-05-02T05:42:00.705Z,102597.19
2023-05-02T05:44:27.228Z,102608.06
2023-05-02T05:46:54.424Z,102613.38
2023-05-02T05:49:22.163Z,102602.69
2023-05-02T05:51:48.730Z,102614.16
2023-05-02T05:54:16.975Z,102619.44
2023-05-02T05:56:43.542Z,102620.41
2023-05-02T05:59:10.009Z,102628.38
2023-05-02T06:01:36.619Z,102635.44
2023-05-02T06:04:03.350Z,102630.41
2023-05-02T06:06:30.148Z,102647.63
2023-05-02T06:08:56.791Z,102642.56
2023-05-02T06:11:24.514Z,102648.31
2023-05-02T06:13:54.829Z,102652.41
2023-05-02T06:16:21.590Z,102655.59
2023-05-02T06:18:50.785Z,102656.91
2023-05-02T06:21:17.286Z,102656.34
2023-05-02T06:23:43.781Z,102658.03
2023-05-02T06:26:10.316Z,102656.41
2023-05-02T06:28:36.840Z,102661.19
2023-05-02T06:31:06.254Z,102664.28
2023-05-02T06:33:33.960Z,102675.19
2023-05-02T06:36:01.956Z,102676.88
2023-05-02T06:38:28.930Z,102673.50
2023-05-02T06:40:55.743Z,102681.91
2023-05-02T06:43:22.193Z,102688.59
2023-05-02T06:45:48.824Z,102696.13
2023-05-02T06:48:15.538Z,102695.16
2023-05-02T06:50:42.260Z,102698.97
2023-05-02T06:53:08.820Z,102705.94
2023-05-02T06:55:35.599Z,102710.69
2023-05-02T06:58:02.124Z,102706.88
2023-05-02T07:00:28.588Z,102710.78
2023-05-02T07:02:55.183Z,102728.03
2023-05-02T07:05:21.813Z,102727.59
2023-05-02T07:07:48.271Z,102733.53
2023-05-02T07:10:14.751Z,102743.63
2023-05-02T07:12:41.207Z,102743.75
2023-05-02T07:15:08.352Z,102753.25
2023-05-02T07:17:34.936Z,102749.38
2023-05-02T07:20:01.677Z,102752.34
2023-05-02T07:22:28.352Z,102750.03
2023-05-02T07:25:02.525Z,102757.19
2023-05-02T07:27:29.090Z,102762.00
2023-05-02T07:29:55.556Z,102767.91
2023-05-02T07:32:22.546Z,102765.47
2023-05-02T07:34:49.175Z,102774.13
2023-05-02T07:37:15.820Z,102763.28
2023-05-02T07:39:42.536Z,102776.97
2023-05-02T07:42:09.160Z,102776.47
2023-05-02T07:44:36.801Z,102772.72
2023-05-02T07:47:03.328Z,102776.91
2023-05-02T07:49:31.099Z,102801.63
2023-05-02T07:51:57.854Z,102787.97
2023-05-02T07:54:26.403Z,102782.84
2023-05-02T07:56:52.993Z,102794.09
2023-05-02T07:59:19.558Z,102784.47
2023-05-02T08:01:46.271Z,102800.00
2023-05-02T08:04:13.174Z,102808.34
2023-05-02T08:06:39.973Z,102798.69
2023-05-02T08:09:06.493Z,102799.81
2023-05-02T08:11:32.981Z,102805.50
2023-05-02T08:13:59.483Z,102799.28
2023-05-02T08:16:26.057Z,102822.06
2023-05-02T08:18:52.644Z,102811.75
2023-05-02T08:21:19.190Z,102819.91
2023-05-02T08:23:46.526Z,102820.25
2023-05-02T08:26:13.094Z,102807.16
2023-05-02T08:28:39.561Z,102818.41
2023-05-02T08:31:06.109Z,102823.72
2023-05-02T08:33:32.704Z,102827.53
2023-05-02T08:36:00.245Z,102828.50
2023-05-02T08:38:26.879Z,102827.63
2023-05-02T08:40:53.358Z,102843.03
2023-05-02T08:43:20.804Z,102829.94
2023-05-02T08:45:49.807Z,102839.56
2023-05-02T08:48:17.940Z,102840.28
2023-05-02T08:50:48.077Z,102840.84
2023-05-02T08:53:14.738Z,102851.63
2023-05-02T08:55:42.323Z,102851.97
2023-05-02T08:58:10.637Z,102858.94
2023-05-02T09:00:42.506Z,102849.72
2023-05-02T09:03:23.755Z,102848.91
2023-05-02T09:05:57.447Z,102846.69
2023-05-02T09:08:24.640Z,102858.16
2023-05-02T09:10:51.835Z,102856.94
2023-05-02T09:13:43.971Z,102867.16
2023-05-02T09:16:15.713Z,102870.63
2023-05-02T09:18:45.492Z,102862.69
2023-05-02T09:21:20.559Z,102865.19
2023-05-02T09:23:53.650Z,102872.16
2023-05-02T09:26:21.663Z,102880.53
2023-05-02T09:28:49.131Z,102874.50
2023-05-02T09:31:43.686Z,102870.31
2023-05-02T09:34:11.851Z,102880.28
2023-05-02T09:36:43.686Z,102881.56
2023-05-02T09:39:13.368Z,102869.94
2023-05-02T09:41:47.139Z,102891.22
2023-05-02T09:44:27.795Z,102885.75
2023-05-02T09:46:56.299Z,102891.50
2023-05-02T09:49:42.381Z,102887.28
2023-05-02T09:52:16.706Z,102899.22
2023-05-02T09:54:43.845Z,102901.31
2023-05-02T09:57:11.211Z,102895.28
2023-05-02T09:59:39.664Z,102900.34
2023-05-02T10:02:07.585Z,102897.94
2023-05-02T10:04:34.617Z,102891.19
2023-05-02T10:07:02.878Z,102880.81
2023-05-02T10:09:32.553Z,102901.53
2023-05-02T10:12:06.761Z,102898.72
2023-05-02T10:14:39.264Z,102894.03
2023-05-02T10:17:13.175Z,102911.69
2023-05-02T10:20:05.794Z,102916.03
2023-05-02T10:22:35.132Z,102916.69
2023-05-02T10:25:03.664Z,102908.03
2023-05-02T10:27:32.257Z,102906.66
2023-05-02T10:30:00.561Z,102908.66
2023-05-02T10:32:32.741Z,102916.72
2023-05-02T10:35:04.431Z,102922.22
2023-05-02T10:37:35.798Z,102931.56
2023-05-02T10:40:03.288Z,102933.66
2023-05-02T10:42:30.774Z,102924.91
2023-05-02T10:44:58.051Z,102920.53
2023-05-02T10:47:26.931Z,102924.81
2023-05-02T10:49:56.021Z,102932.81
2023-05-02T10:52:34.185Z,102926.78
2023-05-02T10:55:21.417Z,102922.31
2023-05-02T10:58:08.103Z,102931.22
2023-05-02T11:00:34.953Z,102924.59
2023-05-02T11:03:02.272Z,102925.06
2023-05-02T11:05:29.249Z,102925.00
2023-05-02T11:08:22.804Z,102937.78
2023-05-02T11:10:49.770Z,102947.28
2023-05-02T11:13:16.333Z,102942.69
2023-05-02T11:15:42.843Z,102934.78
2023-05-02T11:18:13.524Z,102933.06
2023-05-02T11:20:41.198Z,102936.69
2023-05-02T11:23:22.880Z,102937.28
2023-05-02T11:25:50.759Z,102937.00
2023-05-02T11:28:44.482Z,102942.63
2023-05-02T11:31:29.289Z,102943.63
2023-05-02T11:34:04.648Z,102942.69
2023-05-02T11:36:35.212Z,102952.97
2023-05-02T11:39:05.314Z,102945.41
2023-05-02T11:41:44.440Z,102928.28
2023-05-02T11:44:10.909Z,102949.34
2023-05-02T11:46:38.692Z,102944.94
2023-05-02T11:49:07.021Z,102954.22
2023-05-02T11:51:35.680Z,102948.81
2023-05-02T11:54:02.575Z,102957.34
2023-05-02T11:56:29.126Z,102958.03
2023-05-02T11:59:00.048Z,102964.84
2023-05-02T12:01:26.583Z,102948.97
2023-05-02T12:04:10.406Z,102957.22
2023-05-02T12:06:36.987Z,102962.03
2023-05-02T12:09:13.616Z,102971.06
2023-05-02T12:11:40.099Z,102964.91
2023-05-02T12:14:07.136Z,102966.41
2023-05-02T12:16:34.162Z,102969.69
2023-05-02T12:19:01.419Z,102965.94
2023-05-02T12:21:33.090Z,102975.47
2023-05-02T12:24:01.730Z,102975.75
2023-05-02T12:26:30.864Z,102970.50
2023-05-02T12:28:58.998Z,102987.88
2023-05-02T12:31:28.081Z,102988.41
2023-05-02T12:33:57.858Z,102985.25
2023-05-02T12:36:24.911Z,102995.34
2023-05-02T12:38:54.468Z,102998.34
2023-05-02T12:41:51.534Z,103001.50
2023-05-02T12:44:36.373Z,102998.91
2023-05-02T12:47:02.881Z,103003.03
2023-05-02T12:49:29.525Z,103012.72
2023-05-02T12:51:56.378Z,103014.44
2023-05-02T12:54:23.183Z,103007.94
2023-05-02T12:56:52.164Z,103005.63
2023-05-02T12:59:29.658Z,103015.06
2023-05-02T13:01:56.578Z,103007.78
2023-05-02T13:04:36.959Z,102996.91
2023-05-02T13:07:03.456Z,103012.50
2023-05-02T13:09:29.930Z,102999.56
2023-05-02T13:11:57.050Z,102991.31
2023-05-02T13:14:23.531Z,102990.56
2023-05-02T13:16:50.377Z,103009.66
2023-05-02T13:19:16.891Z,102999.56
2023-05-02T13:21:43.403Z,103001.94
2023-05-02T13:24:10.067Z,103009.22
2023-05-02T13:26:36.734Z,103014.47
2023-05-02T13:29:03.259Z,103015.25
2023-05-02T13:31:30.035Z,103012.09
2023-05-02T13:33:56.575Z,103017.38
2023-05-02T13:36:24.419Z,103001.09
2023-05-02T13:38:50.889Z,103010.31
2023-05-02T13:41:17.441Z,103011.69
2023-05-02T13:43:44.075Z,103015.03
2023-05-02T13:46:10.792Z,103009.53
2023-05-02T13:48:37.475Z,103000.19
2023-05-02T13:51:04.014Z,103001.38
2023-05-02T13:53:30.600Z,103011.97
2023-05-02T13:55:57.059Z,103027.06
2023-05-02T13:58:23.590Z,103024.81
2023-05-02T14:00:50.117Z,103026.78
2023-05-02T14:03:17.648Z,103031.44
2023-05-02T14:05:44.414Z,103028.50
2023-05-02T14:08:11.281Z,103028.03
2023-05-02T14:10:38.365Z,103029.94
2023-05-02T14:13:05.361Z,103031.53
2023-05-02T14:15:32.057Z,103028.69
2023-05-02T14:17:58.567Z,103035.59
2023-05-02T14:20:25.176Z,103023.47
2023-05-02T14:22:51.853Z,103023.59
2023-05-02T14:25:20.466Z,103020.91
2023-05-02T14:27:47.412Z,103020.59
2023-05-02T14:30:13.922Z,103025.31
2023-05-02T14:32:40.447Z,103023.84
2023-05-02T14:35:07.276Z,103023.25
2023-05-02T14:37:33.725Z,103023.50
2023-05-02T14:40:00.459Z,103023.25
2023-05-02T14:42:27.135Z,103029.88
2023-05-02T14:44:53.704Z,103022.03
2023-05-02T14:47:20.305Z,103022.69
2023-05-02T14:49:46.839Z,103030.03
2023-05-02T14:52:13.360Z,103032.22
2023-05-02T14:54:39.813Z,103020.66
2023-05-02T14:57:07.649Z,103012.31
2023-05-02T14:59:36.008Z,103020.22
2023-05-02T15:02:02.661Z,103022.56
2023-05-02T15:04:30.585Z,103019.72
2023-05-02T15:06:58.413Z,103014.84
2023-05-02T15:09:26.658Z,103016.69
2023-05-02T15:11:53.546Z,103020.06
2023-05-02T15:14:19.999Z,103023.91
2023-05-02T15:16:46.846Z,103014.38
2023-05-02T15:19:13.697Z,103007.66
2023-05-02T15:21:40.244Z,103012.34
2023-05-02T15:24:06.875Z,103020.38
2023-05-02T15:26:33.406Z,103019.69
2023-05-02T15:28:59.906Z,103020.38
2023-05-02T15:31:26.511Z,103009.66
2023-05-02T15:33:52.970Z,103015.03
2023-05-02T15:36:19.439Z,103013.84
2023-05-02T15:38:45.924Z,103003.06
2023-05-02T15:41:12.393Z,103004.44
2023-05-02T15:43:38.960Z,103014.00
2023-05-02T15:46:05.498Z,103010.69
2023-05-02T15:48:35.269Z,103017.13
2023-05-02T15:51:02.828Z,103021.78
2023-05-02T15:53:29.701Z,103019.41
2023-05-02T15:55:56.189Z,103018.06
2023-05-02T15:58:22.742Z,103020.06
2023-05-02T16:00:49.287Z,103014.38
2023-05-02T16:03:16.006Z,103013.00
2023-05-02T16:05:42.599Z,103016.72
2023-05-02T16:08:09.215Z,103022.22
2023-05-02T16:10:36.647Z,103016.53
2023-05-02T16:13:03.336Z,103027.38
2023-05-02T16:15:30.500Z,103026.75
2023-05-02T16:17:57.374Z,103026.34
2023-05-02T16:20:24.050Z,103026.19
2023-05-02T16:22:51.360Z,103026.13
2023-05-02T16:25:18.688Z,103048.00
2023-05-02T16:27:45.223Z,103042.50
2023-05-02T16:30:13.062Z,103032.09
2023-05-02T16:32:39.801Z,103037.31
2023-05-02T16:35:08.230Z,103036.53
2023-05-02T16:37:35.334Z,103031.00
2023-05-02T16:40:02.916Z,103031.28
2023-05-02T16:42:29.793Z,103034.59
2023-05-02T16:44:57.269Z,103038.38
2023-05-02T16:47:24.174Z,103033.06
2023-05-02T16:49:57.856Z,103036.53
2023-05-02T16:52:25.730Z,103040.63
2023-05-02T16:54:52.334Z,103043.47
2023-05-02T16:57:20.838Z,103045.06
2023-05-02T16:59:49.195Z,103044.50
2023-05-02T17:02:16.290Z,103037.47
2023-05-02T17:04:43.006Z,103043.94
2023-05-02T17:07:11.715Z,103045.88
2023-05-02T17:09:39.027Z,103053.16
2023-05-02T17:12:12.855Z,103047.28
2023-05-02T17:14:42.343Z,103053.75
2023-05-02T17:17:09.399Z,103063.53
2023-05-02T17:19:36.717Z,103047.59
2023-05-02T17:22:05.240Z,103052.91
2023-05-02T17:24:32.346Z,103052.34
2023-05-02T17:26:58.842Z,103047.31
2023-05-02T17:29:25.641Z,103041.13
2023-05-02T17:31:52.156Z,103041.00
2023-05-02T17:34:18.692Z,103041.13
2023-05-02T17:36:46.342Z,103053.16
2023-05-02T17:39:13.486Z,103045.22
2023-05-02T17:41:40.119Z,103049.63
2023-05-02T17:44:06.747Z,103057.94
2023-05-02T17:46:33.494Z,103059.16
2023-05-02T17:49:00.961Z,103060.66
2023-05-02T17:51:27.930Z,103063.50
2023-05-02T17:53:54.484Z,103059.94
2023-05-02T17:56:21.047Z,103067.91
2023-05-02T17:58:47.683Z,103068.59
2023-05-02T18:01:14.314Z,103061.56
2023-05-02T18:03:41.294Z,103066.31
2023-05-02T18:06:08.176Z,103063.31
2023-05-02T18:08:34.964Z,103059.41
2023-05-02T18:11:03.196Z,103068.25
2023-05-02T18:13:30.135Z,103082.31
2023-05-02T18:16:01.460Z,103073.84
2023-05-02T18:18:28.147Z,103080.72
2023-05-02T18:20:55.736Z,103091.81
2023-05-02T18:23:22.218Z,103089.03
2023-05-02T18:25:48.733Z,103077.91
2023-05-02T18:28:15.202Z,103079.53
2023-05-02T18:30:41.726Z,103085.56
2023-05-02T18:33:09.024Z,103095.28
2023-05-02T18:35:35.661Z,103092.72
2023-05-02T18:38:02.290Z,103084.78
2023-05-02T18:40:28.836Z,103092.16
2023-05-02T18:42:55.355Z,103094.09
2023-05-02T18:45:22.002Z,103098.44
2023-05-02T18:47:51.038Z,103096.28
2023-05-02T18:50:18.155Z,103093.06
2023-05-02T18:52:44.611Z,103094.28
2023-05-02T18:55:11.488Z,103089.66
2023-05-02T18:57:38.010Z,103092.78
2023-05-02T19:00:06.389Z,103094.34
2023-05-02T19:02:33.621Z,103100.28
2023-05-02T19:05:00.747Z,103110.28
2023-05-02T19:07:27.942Z,103114.84
2023-05-02T19:09:54.444Z,103109.06
2023-05-02T19:12:20.963Z,103113.88
2023-05-02T19:14:50.297Z,103116.53
2023-05-02T19:17:16.964Z,103115.47
2023-05-02T19:19:43.542Z,103117.41
2023-05-02T19:22:10.065Z,103130.66
2023-05-02T19:24:36.616Z,103115.38
2023-05-02T19:27:06.784Z,103121.50
2023-05-02T19:29:34.236Z,103128.00
2023-05-02T19:32:00.925Z,103126.78
2023-05-02T19:34:28.231Z,103126.19
2023-05-02T19:36:54.912Z,103127.50
2023-05-02T19:39:21.673Z,103131.09
2023-05-02T19:41:49.948Z,103136.16
2023-05-02T19:44:18.021Z,103126.66
2023-05-02T19:46:44.544Z,103140.25
2023-05-02T19:49:11.084Z,103133.50
2023-05-02T19:51:37.766Z,103130.72
2023-05-02T19:54:04.411Z,103131.69
2023-05-02T19:56:30.992Z,103135.28
2023-05-02T19:58:58.610Z,103139.88
2023-05-02T20:01:31.208Z,103139.38
2023-05-02T20:03:58.172Z,103137.44
2023-05-02T20:06:24.768Z,103143.94
2023-05-02T20:08:52.481Z,103139.19
2023-05-02T20:11:19.026Z,103156.69
2023-05-02T20:13:45.872Z,103149.44
2023-05-02T20:16:13.738Z,103159.78
2023-05-02T20:18:40.323Z,103160.84
2023-05-02T20:21:06.908Z,103159.06
2023-05-02T20:23:33.427Z,103163.75
2023-05-02T20:25:59.924Z,103150.03
2023-05-02T20:28:26.466Z,103151.13
2023-05-02T20:30:52.950Z,103163.00
2023-05-02T20:33:19.829Z,103167.69
2023-05-02T20:35:53.689Z,103168.28
2023-05-02T20:38:20.373Z,103164.41
2023-05-02T20:40:46.857Z,103168.75
2023-05-02T20:43:14.234Z,103173.41
2023-05-02T20:45:40.833Z,103175.75
2023-05-02T20:48:07.405Z,103181.16
2023-05-02T20:50:33.944Z,103186.28
2023-05-02T20:53:00.546Z,103190.94
2023-05-02T20:55:27.574Z,103184.41
2023-05-02T20:57:54.074Z,103199.22
2023-05-02T21:00:23.666Z,103181.38
2023-05-02T21:02:50.340Z,103189.03
2023-05-02T21:05:17.137Z,103181.97
2023-05-02T21:07:44.730Z,103190.25
2023-05-02T21:10:11.459Z,103182.41
2023-05-02T21:12:37.982Z,103184.00
2023-05-02T21:15:05.046Z,103175.91
2023-05-02T21:17:31.663Z,103187.72
2023-05-02T21:19:58.137Z,103186.38
2023-05-02T21:22:24.609Z,103184.34
2023-05-02T21:24:51.115Z,103186.69
2023-05-02T21:27:18.165Z,103189.53
2023-05-02T21:29:44.692Z,103176.22
2023-05-02T21:32:11.272Z,103178.13
2023-05-02T21:34:38.119Z,103173.56
2023-05-02T21:37:04.622Z,103190.16
2023-05-02T21:39:31.105Z,103184.16
2023-05-02T21:41:57.608Z,103176.00
2023-05-02T21:44:24.420Z,103171.47
2023-05-02T21:46:51.398Z,103172.41
2023-05-02T21:49:17.885Z,103177.19
2023-05-02T21:51:44.323Z,103185.75
2023-05-02T21:54:10.805Z,103177.59
2023-05-02T21:56:37.385Z,103178.97
2023-05-02T21:59:03.870Z,103185.41
2023-05-02T22:01:30.462Z,103192.28
2023-05-02T22:03:58.160Z,103183.31
2023-05-02T22:06:25.082Z,103184.34
2023-05-02T22:08:52.799Z,103168.38
2023-05-02T22:11:21.620Z,103187.28
2023-05-02T22:13:48.519Z,103174.91
2023-05-02T22:16:15.930Z,103181.44
2023-05-02T22:18:45.126Z,103159.47
2023-05-02T22:21:12.219Z,103170.34
2023-05-02T22:23:38.911Z,103168.84
2023-05-02T22:26:05.481Z,103162.16
2023-05-02T22:28:31.974Z,103159.84
2023-05-02T22:30:58.442Z,103168.78
2023-05-02T22:33:25.107Z,103163.81
2023-05-02T22:35:51.671Z,103162.34
2023-05-02T22:38:19.770Z,103160.66
2023-05-02T22:40:46.556Z,103157.47
2023-05-02T22:43:13.009Z,103163.47
2023-05-02T22:45:39.480Z,103166.56
2023-05-02T22:48:07.023Z,103165.59
2023-05-02T22:50:33.945Z,103160.84
2023-05-02T22:53:03.755Z,103160.50
2023-05-02T22:55:30.692Z,103176.72
2023-05-02T22:57:58.014Z,103171.78
2023-05-02T23:00:24.952Z,103175.56
2023-05-02T23:02:51.729Z,103179.53
2023-05-02T23:05:18.776Z,103180.88
2023-05-02T23:07:45.335Z,103181.25
2023-05-02T23:10:11.842Z,103172.97
2023-05-02T23:12:38.596Z,103186.34
2023-05-02T23:15:05.452Z,103186.81
2023-05-02T23:17:31.937Z,103187.13
2023-05-02T23:19:58.818Z,103203.19
2023-05-02T23:22:25.463Z,103197.47
2023-05-02T23:24:51.937Z,103195.19
2023-05-02T23:27:18.367Z,103197.28
2023-05-02T23:29:46.074Z,103183.53
2023-05-02T23:32:12.642Z,103180.72
2023-05-02T23:34:39.207Z,103195.00
2023-05-02T23:37:06.942Z,103202.16
2023-05-02T23:39:33.715Z,103213.22
2023-05-02T23:42:00.777Z,103207.22
2023-05-02T23:44:27.282Z,103215.88
2023-05-02T23:46:53.803Z,103210.31
2023-05-02T23:49:21.337Z,103217.34
2023-05-02T23:51:47.939Z,103220.47
2023-05-02T23:54:14.561Z,103213.69
2023-05-02T23:56:40.984Z,103223.34
2023-05-02T23:59:07.486Z,103227.78
